createdAt,value
2019-01-28T00:00:02.518Z,987.53
2019-01-28T00:05:02.591Z,987.41
2019-01-28T00:10:03.016Z,987.42
2019-01-28T00:15:02.443Z,987.41
2019-01-28T00:20:02.883Z,987.36
2019-01-28T00:25:03.357Z,987.26
2019-01-28T00:30:02.775Z,987.24
2019-01-28T00:35:03.106Z,987.17
2019-01-28T00:40:02.530Z,987.2
2019-01-28T00:45:02.951Z,987.05
2019-01-28T00:50:03.298Z,987.05
2019-01-28T00:55:02.615Z,987.03
2019-01-28T01:00:02.940Z,986.96
2019-01-28T01:05:02.464Z,986.98
2019-01-28T01:10:02.916Z,987.04
2019-01-28T01:15:03.259Z,986.96
2019-01-28T01:20:02.588Z,986.92
2019-01-28T01:25:02.909Z,986.95
2019-01-28T01:30:02.584Z,986.85
2019-01-28T01:35:02.157Z,986.8
2019-01-28T01:40:02.639Z,986.69
2019-01-28T01:45:03.040Z,986.73
2019-01-28T01:50:02.457Z,986.74
2019-01-28T01:55:02.781Z,986.84
2019-01-28T02:00:03.147Z,986.84
2019-01-28T02:05:02.558Z,986.89
2019-01-28T02:10:03.005Z,986.87
2019-01-28T02:15:02.432Z,986.86
2019-01-28T02:20:02.867Z,986.83
2019-01-28T02:25:03.211Z,986.8
2019-01-28T02:30:02.632Z,986.85
2019-01-28T02:35:03.110Z,986.89
2019-01-28T02:40:02.627Z,986.82
2019-01-28T02:45:03.037Z,986.92
2019-01-28T02:50:02.455Z,986.8
2019-01-28T02:55:02.809Z,986.79
2019-01-28T03:00:03.243Z,986.83
2019-01-28T03:05:02.650Z,986.89
2019-01-28T03:10:03.101Z,986.82
2019-01-28T03:15:02.525Z,986.79
2019-01-28T03:20:02.973Z,986.84
2019-01-28T03:25:03.305Z,986.82
2019-01-28T03:30:02.722Z,986.81
2019-01-28T03:35:03.104Z,986.84
2019-01-28T03:40:02.584Z,986.81
2019-01-28T03:45:02.941Z,986.82
2019-01-28T03:50:03.377Z,986.84
2019-01-28T03:55:02.781Z,986.79
2019-01-28T04:00:02.738Z,986.79
2019-01-28T04:05:03.171Z,986.78
2019-01-28T04:10:02.580Z,986.75
2019-01-28T04:15:02.923Z,986.77
2019-01-28T04:20:03.372Z,986.73
2019-01-28T04:25:02.785Z,986.86
2019-01-28T04:30:03.134Z,986.76
2019-01-28T04:35:02.557Z,986.85
2019-01-28T04:40:02.993Z,986.72
2019-01-28T04:45:02.411Z,986.83
2019-01-28T04:50:02.787Z,986.87
2019-01-28T04:55:03.131Z,986.8
2019-01-28T05:00:02.543Z,986.9
2019-01-28T05:05:02.954Z,986.92
2019-01-28T05:10:02.404Z,986.95
2019-01-28T05:15:02.831Z,986.96
2019-01-28T05:20:03.197Z,987.04
2019-01-28T05:25:02.579Z,987.03
2019-01-28T05:30:02.818Z,987.14
2019-01-28T05:35:03.224Z,987.17
2019-01-28T05:40:02.631Z,987.14
2019-01-28T05:45:03.016Z,987.11
2019-01-28T05:50:02.438Z,987.14
2019-01-28T05:55:02.922Z,987.11
2019-01-28T06:00:03.271Z,987.17
2019-01-28T06:05:02.637Z,987.23
2019-01-28T06:10:03.025Z,987.2
2019-01-28T06:15:02.412Z,987.2
2019-01-28T06:20:02.850Z,987.31
2019-01-28T06:25:03.289Z,987.32
2019-01-28T06:30:02.710Z,987.42
2019-01-28T06:35:03.160Z,987.43
2019-01-28T06:40:02.565Z,987.51
2019-01-28T06:45:02.936Z,987.59
2019-01-28T06:50:03.367Z,987.73
2019-01-28T06:55:02.825Z,987.83
2019-01-28T07:00:02.413Z,987.98
2019-01-28T07:05:02.837Z,988.17
2019-01-28T07:10:03.287Z,988.16
2019-01-28T07:15:02.707Z,988.32
2019-01-28T07:20:03.181Z,988.42
2019-01-28T07:25:02.608Z,988.53
2019-01-28T07:30:03.006Z,988.62
2019-01-28T07:35:02.464Z,988.75
2019-01-28T07:40:02.869Z,988.8
2019-01-28T07:45:03.222Z,988.95
2019-01-28T07:50:02.624Z,989.03
2019-01-28T07:55:02.971Z,989.23
2019-01-28T08:00:02.405Z,989.28
2019-01-28T08:05:02.839Z,989.47
2019-01-28T08:10:03.278Z,989.44
2019-01-28T08:15:02.702Z,989.61
2019-01-28T08:20:11.195Z,989.72
2019-01-28T08:25:02.908Z,989.92
2019-01-28T08:30:03.315Z,990.05
2019-01-28T08:35:02.731Z,990.1
2019-01-28T08:40:03.180Z,990.22
2019-01-28T08:45:02.593Z,990.3
2019-01-28T08:50:02.932Z,990.45
2019-01-28T08:55:03.282Z,990.46
2019-01-28T09:00:02.692Z,990.67
2019-01-28T09:05:03.040Z,990.64
2019-01-28T09:10:02.455Z,990.94
2019-01-28T09:15:03.010Z,991.02
2019-01-28T09:20:02.360Z,991.15
2019-01-28T09:25:02.802Z,991.21
2019-01-28T09:30:03.212Z,991.25
2019-01-28T09:35:02.965Z,991.39
2019-01-28T09:40:02.447Z,991.57
2019-01-28T09:45:02.792Z,991.74
2019-01-28T09:50:03.294Z,991.85
2019-01-28T09:55:02.614Z,992.04
2019-01-28T10:00:02.995Z,992.06
2019-01-28T10:05:02.420Z,992.39
2019-01-28T10:10:02.857Z,992.48
2019-01-28T10:15:03.200Z,992.52
2019-01-28T10:20:02.609Z,992.59
2019-01-28T10:25:02.995Z,992.72
2019-01-28T10:30:02.410Z,992.87
2019-01-28T10:35:02.821Z,992.98
2019-01-28T10:40:03.269Z,993.21
2019-01-28T10:45:02.680Z,993.2
2019-01-28T10:50:03.020Z,993.25
2019-01-28T10:55:02.445Z,993.28
2019-01-28T11:00:02.879Z,993.54
2019-01-28T11:05:03.227Z,993.71
2019-01-28T11:10:02.688Z,993.68
2019-01-28T11:15:03.151Z,993.75
2019-01-28T11:20:02.526Z,993.81
2019-01-28T11:25:03.105Z,994.0
2019-01-28T11:30:02.656Z,994.0
2019-01-28T11:35:03.078Z,994.13
2019-01-28T11:40:02.729Z,994.27
2019-01-28T11:45:03.139Z,994.43
2019-01-28T11:50:02.659Z,994.63
2019-01-28T11:55:03.055Z,994.57
2019-01-28T12:00:02.469Z,994.57
2019-01-28T12:05:02.957Z,994.96
2019-01-28T12:10:02.457Z,994.94
2019-01-28T12:15:02.918Z,995.13
2019-01-28T12:20:03.376Z,995.21
2019-01-28T12:25:02.714Z,995.47
2019-01-28T12:30:03.156Z,995.42
2019-01-28T12:35:02.503Z,995.53
2019-01-28T12:40:02.996Z,995.71
2019-01-28T12:45:02.378Z,995.86
2019-01-28T12:50:02.848Z,996.05
2019-01-28T12:55:03.255Z,996.26
2019-01-28T13:00:02.667Z,996.36
2019-01-28T13:05:03.068Z,996.37
2019-01-28T13:10:02.532Z,996.44
2019-01-28T13:15:02.877Z,996.6
2019-01-28T13:20:03.319Z,996.74
2019-01-28T13:25:02.644Z,996.86
2019-01-28T13:30:02.203Z,997.02
2019-01-28T13:35:02.599Z,997.18
2019-01-28T13:40:03.056Z,997.16
2019-01-28T13:45:02.461Z,997.37
2019-01-28T13:50:02.783Z,997.36
2019-01-28T13:55:03.146Z,997.5
2019-01-28T14:00:02.607Z,997.61
2019-01-28T14:05:03.038Z,997.8
2019-01-28T14:10:02.526Z,997.83
2019-01-28T14:15:02.878Z,997.84
2019-01-28T14:20:03.315Z,997.95
2019-01-28T14:25:02.730Z,998.04
2019-01-28T14:30:03.056Z,998.12
2019-01-28T14:35:02.493Z,998.2
2019-01-28T14:40:02.934Z,998.21
2019-01-28T14:45:05.137Z,998.46
2019-01-28T14:50:01.906Z,998.53
2019-01-28T14:55:03.334Z,998.65
2019-01-28T15:00:02.756Z,998.77
2019-01-28T15:05:03.104Z,998.94
2019-01-28T15:10:02.516Z,998.98
2019-01-28T15:15:02.861Z,999.03
2019-01-28T15:20:03.299Z,999.19
2019-01-28T15:25:02.733Z,999.3
2019-01-28T15:30:03.061Z,999.33
2019-01-28T15:35:02.485Z,999.43
2019-01-28T15:40:02.930Z,999.6
2019-01-28T15:45:11.092Z,999.72
2019-01-28T15:50:10.378Z,999.77
2019-01-28T15:55:03.166Z,999.97
2019-01-28T16:00:02.583Z,999.97
2019-01-28T16:05:03.009Z,1000.06
2019-01-28T16:10:02.448Z,1000.25
2019-01-28T16:15:02.855Z,1000.29
2019-01-28T16:20:03.657Z,1000.31
2019-01-28T16:25:03.227Z,1000.34
2019-01-28T16:30:02.653Z,1000.48
2019-01-28T16:35:02.997Z,1000.61
2019-01-28T16:40:02.511Z,1000.71
2019-01-28T16:45:02.847Z,1000.88
2019-01-28T16:50:03.201Z,1000.93
2019-01-28T16:55:02.616Z,1001.02
2019-01-28T17:00:03.015Z,1001.19
2019-01-28T17:05:02.375Z,1001.27
2019-01-28T17:10:02.818Z,1001.17
2019-01-28T17:15:03.300Z,1001.4
2019-01-28T17:20:02.718Z,1001.48
2019-01-28T17:25:03.129Z,1001.72
2019-01-28T17:30:02.537Z,1001.72
2019-01-28T17:35:02.991Z,1001.88
2019-01-28T17:40:01.571Z,1001.96
2019-01-28T17:45:02.893Z,1002.06
2019-01-28T17:50:03.215Z,1002.1
2019-01-28T17:55:02.598Z,1002.27
2019-01-28T18:00:02.990Z,1002.41
2019-01-28T18:05:02.374Z,1002.46
2019-01-28T18:10:02.842Z,1002.53
2019-01-28T18:15:03.257Z,1002.56
2019-01-28T18:20:02.669Z,1002.68
2019-01-28T18:25:03.034Z,1002.7
2019-01-28T18:30:02.435Z,1002.72
2019-01-28T18:35:02.877Z,1002.86
2019-01-28T18:40:03.332Z,1002.9
2019-01-28T18:45:02.740Z,1002.98
2019-01-28T18:50:03.084Z,1003.07
2019-01-28T18:55:02.500Z,1003.03
2019-01-28T19:00:02.835Z,1003.17
2019-01-28T19:05:03.225Z,1003.15
2019-01-28T19:10:02.722Z,1003.18
2019-01-28T19:15:03.263Z,1003.26
2019-01-28T19:20:02.695Z,1003.38
2019-01-28T19:25:03.110Z,1003.52
2019-01-28T19:30:02.523Z,1003.57
2019-01-28T19:35:02.879Z,1003.66
2019-01-28T19:40:03.319Z,1003.75
2019-01-28T19:45:02.734Z,1003.78
2019-01-28T19:50:03.213Z,1003.84
2019-01-28T19:55:02.935Z,1003.95
2019-01-28T20:00:03.351Z,1004.07
2019-01-28T20:05:02.681Z,1004.22
2019-01-28T20:10:03.121Z,1004.23
2019-01-28T20:15:02.538Z,1004.31
2019-01-28T20:20:02.992Z,1004.27
2019-01-28T20:25:02.414Z,1004.34
2019-01-28T20:30:02.826Z,1004.47
2019-01-28T20:35:03.278Z,1004.49
2019-01-28T20:40:02.690Z,1004.49
2019-01-28T20:45:03.523Z,1004.56
2019-01-28T20:50:02.161Z,1004.54
2019-01-28T20:55:02.593Z,1004.58
2019-01-28T21:00:02.158Z,1004.66
2019-01-28T21:05:02.566Z,1004.73
2019-01-28T21:10:03.089Z,1004.71
2019-01-28T21:15:02.564Z,1004.78
2019-01-28T21:20:02.957Z,1004.84
2019-01-28T21:25:03.325Z,1004.95
2019-01-28T21:30:02.716Z,1004.88
2019-01-28T21:35:03.050Z,1004.99
2019-01-28T21:40:02.522Z,1005.02
2019-01-28T21:45:02.927Z,1005.06
2019-01-28T21:50:03.376Z,1005.06
2019-01-28T21:55:02.777Z,1005.1
2019-01-28T22:00:03.142Z,1005.11
2019-01-28T22:05:02.552Z,1005.15
2019-01-28T22:10:02.988Z,1005.19
2019-01-28T22:15:02.332Z,1005.22
2019-01-28T22:20:02.671Z,1005.28
2019-01-28T22:25:03.133Z,1005.37
2019-01-28T22:30:02.541Z,1005.3
2019-01-28T22:35:02.955Z,1005.3
2019-01-28T22:40:02.409Z,1005.35
2019-01-28T22:45:02.820Z,1005.4
2019-01-28T22:50:03.164Z,1005.46
2019-01-28T22:55:02.569Z,1005.56
2019-01-28T23:00:02.916Z,1005.6
2019-01-28T23:05:03.260Z,1005.64
2019-01-28T23:10:02.772Z,1005.66
2019-01-28T23:15:03.117Z,1005.67
2019-01-28T23:20:02.457Z,1005.69
2019-01-28T23:25:02.792Z,1005.78
2019-01-28T23:30:03.134Z,1005.88
2019-01-28T23:35:02.534Z,1005.93
2019-01-28T23:40:03.036Z,1006.09
2019-01-28T23:45:02.452Z,1006.06
2019-01-28T23:50:02.845Z,1006.08
2019-01-28T23:55:02.375Z,1006.18
